createdAt,value
2019-01-25T00:00:15.656Z,0.60
2019-01-25T00:05:16.949Z,0.60
2019-01-25T00:10:20.179Z,0.50
2019-01-25T00:15:21.553Z,0.40
2019-01-25T00:20:22.946Z,0.30
2019-01-25T00:25:24.326Z,0.30
2019-01-25T00:30:25.669Z,0.30
2019-01-25T00:35:27.384Z,0.40
2019-01-25T00:40:28.750Z,0.40
2019-01-25T00:45:30.060Z,0.50
2019-01-25T00:50:31.499Z,0.50
2019-01-25T00:55:32.985Z,0.50
2019-01-25T01:00:34.491Z,0.50
2019-01-25T01:05:35.917Z,0.50
2019-01-25T01:10:41.650Z,0.50
2019-01-25T01:15:43.011Z,0.50
2019-01-25T01:20:44.377Z,0.50
2019-01-25T01:25:45.715Z,0.50
2019-01-25T01:30:47.232Z,0.60
2019-01-25T01:35:48.566Z,0.60
2019-01-25T01:40:49.965Z,0.60
2019-01-25T01:45:51.449Z,0.70
2019-01-25T01:50:52.897Z,0.60
2019-01-25T01:55:54.201Z,0.60
2019-01-25T02:00:55.680Z,0.70
2019-01-25T02:05:56.989Z,0.70
2019-01-25T02:10:58.307Z,0.70
2019-01-25T02:15:59.670Z,0.70
2019-01-25T02:21:01.079Z,0.70
2019-01-25T02:26:02.379Z,0.70
2019-01-25T02:31:03.745Z,0.70
2019-01-25T02:36:05.591Z,0.70
2019-01-25T02:41:06.971Z,0.80
2019-01-25T02:46:08.318Z,0.70
2019-01-25T02:51:09.628Z,0.80
2019-01-25T02:56:10.972Z,0.80
2019-01-25T03:01:12.305Z,0.80
2019-01-25T03:06:13.769Z,0.80
2019-01-25T03:11:15.107Z,0.80
2019-01-25T03:16:16.449Z,0.80
2019-01-25T03:21:17.754Z,0.80
2019-01-25T03:26:19.078Z,0.80
2019-01-25T03:31:20.385Z,0.80
2019-01-25T03:36:21.714Z,0.80
2019-01-25T03:41:23.048Z,0.80
2019-01-25T03:46:24.384Z,0.80
2019-01-25T03:51:25.789Z,0.80
2019-01-25T03:56:27.106Z,0.80
2019-01-25T04:01:28.608Z,0.80
2019-01-25T04:06:29.972Z,0.80
2019-01-25T04:11:31.336Z,0.80
2019-01-25T04:16:32.769Z,0.80
2019-01-25T04:21:34.105Z,0.80
2019-01-25T04:26:35.599Z,0.80
2019-01-25T04:31:37.035Z,0.80
2019-01-25T04:41:57.959Z,0.80
2019-01-25T04:46:59.342Z,0.80
2019-01-25T04:52:00.688Z,0.80
2019-01-25T04:57:02.053Z,0.80
2019-01-25T05:02:04.019Z,0.80
2019-01-25T05:07:05.745Z,0.80
2019-01-25T05:12:07.115Z,0.80
2019-01-25T05:17:08.515Z,0.80
2019-01-25T05:22:09.802Z,0.80
2019-01-25T05:27:12.792Z,0.80
2019-01-25T05:32:14.205Z,0.80
2019-01-25T05:37:15.609Z,0.80
2019-01-25T05:42:35.395Z,0.80
2019-01-25T05:47:36.679Z,0.80
2019-01-25T05:52:37.959Z,0.80
2019-01-25T05:57:39.245Z,0.80
2019-01-25T06:02:50.523Z,0.80
2019-01-25T06:07:51.816Z,0.80
2019-01-25T06:12:53.175Z,0.80
2019-01-25T06:18:00.244Z,0.90
2019-01-25T06:23:01.534Z,0.80
2019-01-25T06:28:04.717Z,0.80
2019-01-25T06:33:06.043Z,0.80
2019-01-25T06:38:07.379Z,0.80
2019-01-25T06:43:08.656Z,0.80
2019-01-25T06:48:10.059Z,0.80
2019-01-25T06:53:11.520Z,0.80
2019-01-25T06:58:17.579Z,0.80
2019-01-25T07:03:18.867Z,0.80
2019-01-25T07:08:20.175Z,0.80
2019-01-25T07:13:21.459Z,0.80
2019-01-25T07:18:22.779Z,0.80
2019-01-25T07:23:24.108Z,0.80
2019-01-25T07:28:25.482Z,0.80
2019-01-25T07:33:27.071Z,0.80
2019-01-25T07:38:28.386Z,0.80
2019-01-25T07:43:30.071Z,0.80
2019-01-25T07:48:31.410Z,0.80
2019-01-25T07:53:32.808Z,0.80
2019-01-25T07:58:34.405Z,0.90
2019-01-25T08:03:35.694Z,0.90
2019-01-25T08:08:36.989Z,0.80
2019-01-25T08:13:38.351Z,0.90
2019-01-25T08:18:39.684Z,0.90
2019-01-25T08:23:41.145Z,0.90
2019-01-25T08:28:42.521Z,0.90
2019-01-25T08:33:43.837Z,0.90
2019-01-25T08:38:45.416Z,0.90
2019-01-25T08:43:46.813Z,0.90
2019-01-25T08:48:48.243Z,0.90
2019-01-25T08:53:49.876Z,0.90
2019-01-25T08:58:51.342Z,0.90
2019-01-25T09:03:52.858Z,0.90
2019-01-25T09:08:54.156Z,1.00
2019-01-25T09:13:55.731Z,1.00
2019-01-25T09:18:57.183Z,1.00
2019-01-25T09:23:58.554Z,1.10
2019-01-25T09:28:59.847Z,1.10
2019-01-25T09:34:01.292Z,1.10
2019-01-25T09:39:06.328Z,1.20
2019-01-25T09:44:07.678Z,1.20
2019-01-25T09:49:09.114Z,1.30
2019-01-25T09:54:10.466Z,1.30
2019-01-25T09:59:11.762Z,1.40
2019-01-25T10:04:13.125Z,1.40
2019-01-25T10:09:14.473Z,1.40
2019-01-25T10:14:15.836Z,1.40
2019-01-25T10:19:17.249Z,1.50
2019-01-25T10:24:18.702Z,1.50
2019-01-25T10:29:20.039Z,1.50
2019-01-25T10:34:23.415Z,1.50
2019-01-25T10:39:24.839Z,1.60
2019-01-25T10:44:26.185Z,1.70
2019-01-25T10:49:28.733Z,1.70
2019-01-25T10:54:30.090Z,1.70
2019-01-25T10:59:31.543Z,1.80
2019-01-25T11:04:34.881Z,1.80
2019-01-25T11:09:38.267Z,1.90
2019-01-25T11:14:39.689Z,2.00
2019-01-25T11:19:40.982Z,2.10
2019-01-25T11:24:42.319Z,2.10
2019-01-25T11:29:43.710Z,2.20
2019-01-25T11:34:45.081Z,2.20
2019-01-25T11:39:49.165Z,2.30
2019-01-25T11:44:49.858Z,2.30
2019-01-25T11:49:51.252Z,2.30
2019-01-25T11:54:52.668Z,2.40
2019-01-25T11:59:53.954Z,2.40
2019-01-25T12:04:55.463Z,2.30
2019-01-25T12:09:56.814Z,2.40
2019-01-25T12:14:58.457Z,2.40
2019-01-25T12:19:59.768Z,2.40
2019-01-25T12:25:01.124Z,2.40
2019-01-25T12:30:13.738Z,2.40
2019-01-25T12:35:15.014Z,2.50
2019-01-25T12:40:18.972Z,2.50
2019-01-25T12:45:27.258Z,2.50
2019-01-25T12:50:49.429Z,2.60
2019-01-25T12:55:50.737Z,2.60
2019-01-25T13:00:52.141Z,2.60
2019-01-25T13:05:53.617Z,2.60
2019-01-25T13:10:54.935Z,2.60
2019-01-25T13:15:56.451Z,2.60
2019-01-25T13:20:57.794Z,2.60
2019-01-25T13:25:59.183Z,2.60
2019-01-25T13:31:00.609Z,2.60
2019-01-25T13:36:02.528Z,2.60
2019-01-25T13:41:04.001Z,2.60
2019-01-25T13:46:05.330Z,2.60
2019-01-25T13:51:06.659Z,2.60
2019-01-25T13:56:08.092Z,2.60
2019-01-25T14:01:09.434Z,2.60
2019-01-25T14:06:10.794Z,2.50
2019-01-25T14:11:12.167Z,2.50
2019-01-25T14:16:13.490Z,2.60
2019-01-25T14:21:14.886Z,2.50
2019-01-25T14:26:16.245Z,2.60
2019-01-25T14:31:17.579Z,2.60
2019-01-25T14:36:18.917Z,2.50
2019-01-25T14:41:20.317Z,2.60
2019-01-25T14:46:21.684Z,2.50
2019-01-25T14:51:23.024Z,2.60
2019-01-25T14:56:25.582Z,2.60
2019-01-25T15:01:27.007Z,2.50
2019-01-25T15:06:28.431Z,2.60
2019-01-25T15:11:29.764Z,2.50
2019-01-25T15:16:31.374Z,2.50
2019-01-25T15:21:32.688Z,2.50
2019-01-25T15:26:34.989Z,2.50
2019-01-25T15:31:38.017Z,2.50
2019-01-25T15:36:40.355Z,2.50
2019-01-25T15:41:42.219Z,2.50
2019-01-25T15:46:43.776Z,2.50
2019-01-25T15:51:45.839Z,2.50
2019-01-25T15:56:47.169Z,2.50
2019-01-25T16:01:49.364Z,2.40
2019-01-25T16:06:51.899Z,2.40
2019-01-25T16:17:13.727Z,2.40
2019-01-25T16:22:15.668Z,2.40
2019-01-25T16:27:17.341Z,2.40
2019-01-25T16:32:19.134Z,2.40
2019-01-25T16:37:21.123Z,2.40
2019-01-25T16:42:24.431Z,2.40
2019-01-25T16:47:25.780Z,2.40
2019-01-25T16:52:27.460Z,2.40
2019-01-25T16:57:28.833Z,2.40
2019-01-25T17:02:30.406Z,2.50
2019-01-25T17:07:31.871Z,2.50
2019-01-25T17:12:33.264Z,2.50
2019-01-25T17:17:34.916Z,2.50
2019-01-25T17:22:36.262Z,2.50
2019-01-25T17:27:37.775Z,2.60
2019-01-25T17:32:39.167Z,2.60
2019-01-25T17:37:40.569Z,2.60
2019-01-25T17:42:41.972Z,2.60
2019-01-25T17:47:43.496Z,2.60
2019-01-25T17:52:45.983Z,2.70
2019-01-25T17:57:47.434Z,2.70
2019-01-25T18:02:48.929Z,2.70
2019-01-25T18:07:52.889Z,2.80
2019-01-25T18:12:54.222Z,2.80
2019-01-25T18:17:55.803Z,2.90
2019-01-25T18:22:57.113Z,2.90
2019-01-25T18:28:03.777Z,2.90
2019-01-25T18:33:05.524Z,2.90
2019-01-25T18:38:06.789Z,3.00
2019-01-25T18:43:08.120Z,3.00
2019-01-25T18:48:10.400Z,3.00
2019-01-25T18:53:11.723Z,3.10
2019-01-25T18:58:13.060Z,3.10
2019-01-25T19:03:14.486Z,3.20
2019-01-25T19:08:15.860Z,3.20
2019-01-25T19:13:17.228Z,3.30
2019-01-25T19:18:18.929Z,3.30
2019-01-25T19:23:20.260Z,3.40
2019-01-25T19:28:21.574Z,3.40
2019-01-25T19:33:22.953Z,3.40
2019-01-25T19:38:24.649Z,3.50
2019-01-25T19:43:26.257Z,3.50
2019-01-25T19:48:27.724Z,3.50
2019-01-25T19:53:29.223Z,3.60
2019-01-25T19:58:30.659Z,3.60
2019-01-25T20:03:31.963Z,3.70
2019-01-25T20:08:34.125Z,3.70
2019-01-25T20:13:35.674Z,3.80
2019-01-25T20:18:58.411Z,3.80
2019-01-25T20:24:09.750Z,3.90
2019-01-25T20:29:11.531Z,3.90
2019-01-25T20:34:13.087Z,3.90
2019-01-25T20:39:15.212Z,4.00
2019-01-25T20:44:16.574Z,4.10
2019-01-25T20:49:18.019Z,4.10
2019-01-25T20:54:19.676Z,4.10
2019-01-25T20:59:23.003Z,4.20
2019-01-25T21:04:24.366Z,4.20
2019-01-25T21:09:25.718Z,4.20
2019-01-25T21:14:27.260Z,4.30
2019-01-25T21:19:28.605Z,4.40
2019-01-25T21:24:29.905Z,4.40
2019-01-25T21:29:31.837Z,4.50
2019-01-25T21:34:33.454Z,4.50
2019-01-25T21:39:34.799Z,4.60
2019-01-25T21:44:36.362Z,4.60
2019-01-25T21:49:37.732Z,4.70
2019-01-25T21:54:39.073Z,4.70
2019-01-25T21:59:40.440Z,4.80
2019-01-25T22:04:41.764Z,4.80
2019-01-25T22:09:43.196Z,4.90
2019-01-25T22:14:44.565Z,5.00
2019-01-25T22:19:47.072Z,5.00
2019-01-25T22:24:48.349Z,5.00
2019-01-25T22:29:49.703Z,5.10
2019-01-25T22:34:51.213Z,5.10
2019-01-25T22:39:53.614Z,5.20
2019-01-25T22:44:54.978Z,5.20
2019-01-25T22:49:56.810Z,5.30
2019-01-25T22:54:58.112Z,5.30
2019-01-25T22:59:59.451Z,5.30
2019-01-25T23:05:12.180Z,5.40
2019-01-25T23:10:13.518Z,5.40
2019-01-25T23:15:14.963Z,5.40
2019-01-25T23:20:16.336Z,5.50
2019-01-25T23:25:17.655Z,5.50
2019-01-25T23:30:19.402Z,5.50
2019-01-25T23:35:20.938Z,5.60
2019-01-25T23:40:22.386Z,5.60
2019-01-25T23:45:23.711Z,5.70
2019-01-25T23:50:25.146Z,5.70
2019-01-25T23:55:27.259Z,5.80
